Terminal Aerodrome Forecast
Issued by NWS Boston, MA

Home | Current Version | Previous Version | Text Only | Print | Product List | Glossary On
Versions: 1 2 3 4 5 6 7 8 9 10 11 12 13 14 15 16 17 18 19 20 21 22 23
000
FTUS41 KBOX 132338
TAFPVD
TAF
KPVD 132338Z 1400/1424 27013G31KT P6SM SKC
     FM140600 26009KT P6SM OVC080
     FM140900 26006KT 2SM -SN OVC050
     FM141100 32005KT 1SM -SN OVC040
     FM141500 33006KT 2SM -SN OVC035
     FM141700 31010KT P6SM BKN050
     FM141800 31010KT P6SM SCT140=

USA.gov is the U.S. government's official web portal to all federal, state and local government web resources and services.